Lewistown, MT (59457)

6:40 PM MDT on August 31, 2015 (GMT -0600)
3/4 mile S of Lewistown | | Change Station
CLOSE
Current Station
Personal Weather Station
Location: Lewistown, Mt
Elevation: 4189 ft
Nearby Weather Stations

Elev 4189 ft 47.04 °N, 109.42 °W | Updated 24 seconds ago

Clear
Clear
73.0 °F
Feels Like 77 °F
N
0.0
Wind Variable Wind from NNE
Gusts 3.0 mph

Today
High -- | Low -- °F
--% Chance of Precip.
Yesterday
High -- | Low -- °F
Precip. -- in
6:35 AM 7:59 PM
Waning Gibbous, 92% visible
Pressure 29.82 in
Visibility 10.0 miles
Clouds Clear
Heat Index 77 °F
Dew Point 41 °F
Humidity 32%
Rainfall 0.01 in
Snow Depth Not available.
UV 2 out of 12
Pollen 9.30 out of 12
Air Quality Not available.
Flu Activity Not available.
METAR KLWT 312354Z AUTO 31005KT 10SM CLR 25/01 A2990 RMK AO2 SLP097 T02500011 10256 20194 56005 TSNO
Pressure 29.82 in
Visibility 10.0 miles
Clouds Clear
Heat Index 77 °F
Dew Point 41 °F
Humidity 32%
Rainfall 0.01 in
Snow Depth Not available.
UV 2 out of 12
Pollen 9.30 out of 12
Air Quality Not available.
Flu Activity Not available.
METAR KLWT 312354Z AUTO 31005KT 10SM CLR 25/01 A2990 RMK AO2 SLP097 T02500011 10256 20194 56005 TSNO

10-Day Weather Forecast

×

Almanac

Astronomy

Aug. 31, 2015 Rise Set
Actual Time
Civil Twilight
Nautical Twilight
Astronomical Twilight
Moon
Length of Visible Light
Length of Day
Tomorrow will be .
, % of the Moon is Illuminated

Today's Extremes

State Highs State Lows

Community

WunderPhotos

Upload Photos

1,851,411 photos uploaded!

WunderBlogs® & News

Nearby

Air Quality

  Air Quality AQ Index Pollutant
Not available.

Snow Depth

Station Depth Elevation

Earthquake Activity

City Distance Mag. Time & Date
Minimum magnitude displayed is 2.5.

Coastal Water Temperatures

Place Temperature

Stations

Nearby Weather Stations

Station Location Temp. Windchill Dew Point Humidity Wind Precip. Elev Updated Type